sensor_id;sensor_type;location;lat;lon;timestamp;P1;durP1;ratioP1;P2;durP2;ratioP2
43419;SDS011;29017;51.514;-0.178;2022-08-25T00:00:08;0.93;;;0.55;;
43419;SDS011;29017;51.514;-0.178;2022-08-25T00:02:36;3.92;;;0.70;;
43419;SDS011;29017;51.514;-0.178;2022-08-25T00:05:03;3.50;;;0.80;;
43419;SDS011;29017;51.514;-0.178;2022-08-25T00:07:31;1.48;;;0.50;;
43419;SDS011;29017;51.514;-0.178;2022-08-25T00:09:59;1.42;;;0.55;;
43419;SDS011;29017;51.514;-0.178;2022-08-25T00:12:25;2.45;;;0.50;;
43419;SDS011;29017;51.514;-0.178;2022-08-25T00:14:52;1.73;;;0.52;;
43419;SDS011;29017;51.514;-0.178;2022-08-25T00:17:20;1.08;;;0.50;;
43419;SDS011;29017;51.514;-0.178;2022-08-25T00:19:51;1.10;;;0.40;;
43419;SDS011;29017;51.514;-0.178;2022-08-25T00:22:19;3.03;;;0.50;;
43419;SDS011;29017;51.514;-0.178;2022-08-25T00:24:45;2.47;;;0.52;;
43419;SDS011;29017;51.514;-0.178;2022-08-25T00:27:12;1.23;;;0.40;;
43419;SDS011;29017;51.514;-0.178;2022-08-25T00:29:41;1.00;;;0.40;;
43419;SDS011;29017;51.514;-0.178;2022-08-25T00:32:18;2.40;;;0.60;;
43419;SDS011;29017;51.514;-0.178;2022-08-25T00:34:45;1.75;;;0.57;;
43419;SDS011;29017;51.514;-0.178;2022-08-25T00:37:12;0.75;;;0.40;;
43419;SDS011;29017;51.514;-0.178;2022-08-25T00:39:48;2.97;;;0.50;;
43419;SDS011;29017;51.514;-0.178;2022-08-25T00:42:20;5.85;;;0.52;;
43419;SDS011;29017;51.514;-0.178;2022-08-25T00:44:47;2.15;;;0.40;;
43419;SDS011;29017;51.514;-0.178;2022-08-25T00:47:14;1.52;;;0.50;;
43419;SDS011;29017;51.514;-0.178;2022-08-25T00:49:53;3.50;;;0.50;;
43419;SDS011;29017;51.514;-0.178;2022-08-25T00:55:04;0.93;;;0.40;;
43419;SDS011;29017;51.514;-0.178;2022-08-25T01:00:46;1.02;;;0.40;;
43419;SDS011;29017;51.514;-0.178;2022-08-25T01:03:17;0.65;;;0.40;;
43419;SDS011;29017;51.514;-0.178;2022-08-25T01:05:45;1.92;;;0.40;;
43419;SDS011;29017;51.514;-0.178;2022-08-25T01:08:13;1.35;;;0.50;;
43419;SDS011;29017;51.514;-0.178;2022-08-25T01:10:42;1.15;;;0.60;;
43419;SDS011;29017;51.514;-0.178;2022-08-25T01:13:13;0.93;;;0.40;;
43419;SDS011;29017;51.514;-0.178;2022-08-25T01:15:44;2.28;;;0.40;;
43419;SDS011;29017;51.514;-0.178;2022-08-25T01:18:13;2.58;;;0.30;;
43419;SDS011;29017;51.514;-0.178;2022-08-25T01:20:40;1.85;;;0.38;;
43419;SDS011;29017;51.514;-0.178;2022-08-25T01:23:07;1.42;;;0.35;;
43419;SDS011;29017;51.514;-0.178;2022-08-25T01:28:19;1.83;;;0.60;;
43419;SDS011;29017;51.514;-0.178;2022-08-25T01:30:46;1.02;;;0.30;;
43419;SDS011;29017;51.514;-0.178;2022-08-25T01:33:14;3.30;;;0.50;;
43419;SDS011;29017;51.514;-0.178;2022-08-25T01:35:44;2.28;;;0.50;;
43419;SDS011;29017;51.514;-0.178;2022-08-25T01:38:12;0.90;;;0.38;;
43419;SDS011;29017;51.514;-0.178;2022-08-25T01:40:40;1.75;;;0.40;;
43419;SDS011;29017;51.514;-0.178;2022-08-25T01:45:42;1.98;;;0.50;;
43419;SDS011;29017;51.514;-0.178;2022-08-25T01:48:13;2.03;;;0.40;;
43419;SDS011;29017;51.514;-0.178;2022-08-25T01:50:40;0.68;;;0.30;;
43419;SDS011;29017;51.514;-0.178;2022-08-25T01:55:51;2.65;;;0.82;;
43419;SDS011;29017;51.514;-0.178;2022-08-25T01:58:28;2.00;;;0.70;;
43419;SDS011;29017;51.514;-0.178;2022-08-25T02:00:59;1.25;;;0.50;;
43419;SDS011;29017;51.514;-0.178;2022-08-25T02:03:28;1.92;;;0.30;;
43419;SDS011;29017;51.514;-0.178;2022-08-25T02:05:59;1.02;;;0.30;;
43419;SDS011;29017;51.514;-0.178;2022-08-25T02:08:29;0.85;;;0.40;;
43419;SDS011;29017;51.514;-0.178;2022-08-25T02:10:56;6.53;;;0.80;;
43419;SDS011;29017;51.514;-0.178;2022-08-25T02:13:23;9.02;;;1.40;;
43419;SDS011;29017;51.514;-0.178;2022-08-25T02:15:57;5.28;;;1.15;;
43419;SDS011;29017;51.514;-0.178;2022-08-25T02:18:26;3.90;;;0.90;;
43419;SDS011;29017;51.514;-0.178;2022-08-25T02:20:54;7.40;;;0.75;;
43419;SDS011;29017;51.514;-0.178;2022-08-25T02:23:21;3.90;;;0.70;;
43419;SDS011;29017;51.514;-0.178;2022-08-25T02:25:48;2.72;;;0.65;;
43419;SDS011;29017;51.514;-0.178;2022-08-25T02:28:15;14.48;;;2.28;;
43419;SDS011;29017;51.514;-0.178;2022-08-25T02:30:42;4.18;;;1.10;;
43419;SDS011;29017;51.514;-0.178;2022-08-25T02:33:09;4.45;;;1.70;;
43419;SDS011;29017;51.514;-0.178;2022-08-25T02:35:38;3.97;;;0.98;;
43419;SDS011;29017;51.514;-0.178;2022-08-25T02:38:07;5.68;;;1.00;;
43419;SDS011;29017;51.514;-0.178;2022-08-25T02:40:33;3.90;;;1.02;;
43419;SDS011;29017;51.514;-0.178;2022-08-25T02:43:01;3.45;;;1.10;;
43419;SDS011;29017;51.514;-0.178;2022-08-25T02:45:36;3.63;;;1.38;;
43419;SDS011;29017;51.514;-0.178;2022-08-25T02:48:05;5.00;;;1.08;;
43419;SDS011;29017;51.514;-0.178;2022-08-25T02:50:32;4.28;;;1.48;;
43419;SDS011;29017;51.514;-0.178;2022-08-25T02:53:00;5.78;;;1.50;;
43419;SDS011;29017;51.514;-0.178;2022-08-25T02:55:34;8.27;;;1.30;;
43419;SDS011;29017;51.514;-0.178;2022-08-25T02:58:07;9.73;;;2.28;;
43419;SDS011;29017;51.514;-0.178;2022-08-25T03:00:34;9.32;;;1.73;;
43419;SDS011;29017;51.514;-0.178;2022-08-25T03:03:03;9.23;;;2.80;;
43419;SDS011;29017;51.514;-0.178;2022-08-25T03:05:37;9.60;;;2.22;;
43419;SDS011;29017;51.514;-0.178;2022-08-25T03:08:05;6.20;;;2.67;;
43419;SDS011;29017;51.514;-0.178;2022-08-25T03:10:33;7.65;;;1.98;;
43419;SDS011;29017;51.514;-0.178;2022-08-25T03:13:00;7.60;;;1.92;;
43419;SDS011;29017;51.514;-0.178;2022-08-25T03:15:34;5.88;;;2.50;;
43419;SDS011;29017;51.514;-0.178;2022-08-25T03:18:08;6.95;;;2.47;;
43419;SDS011;29017;51.514;-0.178;2022-08-25T03:20:39;8.57;;;2.65;;
43419;SDS011;29017;51.514;-0.178;2022-08-25T03:23:06;9.73;;;3.03;;
43419;SDS011;29017;51.514;-0.178;2022-08-25T03:25:38;5.10;;;2.40;;
43419;SDS011;29017;51.514;-0.178;2022-08-25T03:28:27;6.07;;;2.33;;
43419;SDS011;29017;51.514;-0.178;2022-08-25T03:30:56;3.83;;;2.40;;
43419;SDS011;29017;51.514;-0.178;2022-08-25T03:33:25;6.00;;;2.83;;
43419;SDS011;29017;51.514;-0.178;2022-08-25T03:35:53;8.15;;;3.20;;
43419;SDS011;29017;51.514;-0.178;2022-08-25T03:38:24;4.53;;;2.85;;
43419;SDS011;29017;51.514;-0.178;2022-08-25T03:40:54;6.25;;;3.50;;
43419;SDS011;29017;51.514;-0.178;2022-08-25T03:43:21;6.25;;;2.70;;
43419;SDS011;29017;51.514;-0.178;2022-08-25T03:45:48;4.72;;;2.70;;
43419;SDS011;29017;51.514;-0.178;2022-08-25T03:48:15;6.82;;;2.85;;
43419;SDS011;29017;51.514;-0.178;2022-08-25T03:50:43;7.82;;;3.03;;
43419;SDS011;29017;51.514;-0.178;2022-08-25T03:53:17;7.68;;;2.75;;
43419;SDS011;29017;51.514;-0.178;2022-08-25T03:55:45;5.93;;;3.03;;
43419;SDS011;29017;51.514;-0.178;2022-08-25T03:58:13;8.10;;;4.45;;
43419;SDS011;29017;51.514;-0.178;2022-08-25T04:00:40;6.45;;;3.67;;
43419;SDS011;29017;51.514;-0.178;2022-08-25T04:03:07;6.40;;;3.80;;
43419;SDS011;29017;51.514;-0.178;2022-08-25T04:05:37;6.03;;;3.42;;
43419;SDS011;29017;51.514;-0.178;2022-08-25T04:08:05;6.65;;;3.63;;
43419;SDS011;29017;51.514;-0.178;2022-08-25T04:10:33;5.90;;;3.60;;
43419;SDS011;29017;51.514;-0.178;2022-08-25T04:13:01;9.98;;;3.95;;
43419;SDS011;29017;51.514;-0.178;2022-08-25T04:15:34;11.98;;;4.80;;
43419;SDS011;29017;51.514;-0.178;2022-08-25T04:18:09;9.65;;;4.63;;
43419;SDS011;29017;51.514;-0.178;2022-08-25T04:20:37;12.35;;;5.00;;
43419;SDS011;29017;51.514;-0.178;2022-08-25T04:23:08;10.88;;;4.82;;
43419;SDS011;29017;51.514;-0.178;2022-08-25T04:25:38;9.18;;;5.60;;
43419;SDS011;29017;51.514;-0.178;2022-08-25T04:28:11;10.27;;;5.28;;
43419;SDS011;29017;51.514;-0.178;2022-08-25T04:30:40;12.13;;;5.88;;
43419;SDS011;29017;51.514;-0.178;2022-08-25T04:33:09;8.70;;;5.75;;
43419;SDS011;29017;51.514;-0.178;2022-08-25T04:35:38;12.43;;;6.63;;
43419;SDS011;29017;51.514;-0.178;2022-08-25T04:38:08;11.82;;;6.70;;
43419;SDS011;29017;51.514;-0.178;2022-08-25T04:40:35;13.15;;;7.20;;
43419;SDS011;29017;51.514;-0.178;2022-08-25T04:43:02;13.07;;;7.72;;
43419;SDS011;29017;51.514;-0.178;2022-08-25T04:45:38;12.23;;;6.97;;
43419;SDS011;29017;51.514;-0.178;2022-08-25T04:48:05;16.13;;;8.05;;
43419;SDS011;29017;51.514;-0.178;2022-08-25T04:50:33;16.70;;;7.50;;
43419;SDS011;29017;51.514;-0.178;2022-08-25T04:53:04;18.92;;;8.70;;
43419;SDS011;29017;51.514;-0.178;2022-08-25T04:55:43;17.15;;;8.38;;
43419;SDS011;29017;51.514;-0.178;2022-08-25T04:58:13;16.13;;;8.35;;
43419;SDS011;29017;51.514;-0.178;2022-08-25T05:00:42;15.02;;;8.70;;
43419;SDS011;29017;51.514;-0.178;2022-08-25T05:03:09;17.67;;;8.85;;
43419;SDS011;29017;51.514;-0.178;2022-08-25T05:05:37;15.63;;;7.90;;
43419;SDS011;29017;51.514;-0.178;2022-08-25T05:08:07;13.98;;;8.45;;
43419;SDS011;29017;51.514;-0.178;2022-08-25T05:10:39;21.48;;;11.23;;
43419;SDS011;29017;51.514;-0.178;2022-08-25T05:13:09;19.95;;;9.48;;
43419;SDS011;29017;51.514;-0.178;2022-08-25T05:15:36;16.08;;;10.02;;
43419;SDS011;29017;51.514;-0.178;2022-08-25T05:18:17;20.35;;;9.63;;
43419;SDS011;29017;51.514;-0.178;2022-08-25T05:20:45;18.08;;;9.13;;
43419;SDS011;29017;51.514;-0.178;2022-08-25T05:23:12;17.52;;;9.18;;
43419;SDS011;29017;51.514;-0.178;2022-08-25T05:25:41;16.52;;;9.93;;
43419;SDS011;29017;51.514;-0.178;2022-08-25T05:28:10;17.85;;;9.98;;
43419;SDS011;29017;51.514;-0.178;2022-08-25T05:30:38;15.45;;;8.75;;
43419;SDS011;29017;51.514;-0.178;2022-08-25T05:33:06;14.88;;;8.88;;
43419;SDS011;29017;51.514;-0.178;2022-08-25T05:35:35;14.88;;;9.20;;
43419;SDS011;29017;51.514;-0.178;2022-08-25T05:38:07;15.57;;;10.40;;
43419;SDS011;29017;51.514;-0.178;2022-08-25T05:40:40;19.67;;;10.20;;
43419;SDS011;29017;51.514;-0.178;2022-08-25T05:43:08;17.20;;;9.45;;
43419;SDS011;29017;51.514;-0.178;2022-08-25T05:45:37;17.17;;;10.85;;
43419;SDS011;29017;51.514;-0.178;2022-08-25T05:48:08;16.73;;;10.05;;
43419;SDS011;29017;51.514;-0.178;2022-08-25T05:50:36;15.30;;;9.10;;
43419;SDS011;29017;51.514;-0.178;2022-08-25T05:53:06;17.98;;;10.55;;
43419;SDS011;29017;51.514;-0.178;2022-08-25T05:55:34;17.75;;;10.45;;
43419;SDS011;29017;51.514;-0.178;2022-08-25T05:58:05;18.90;;;10.98;;
43419;SDS011;29017;51.514;-0.178;2022-08-25T06:00:36;15.45;;;10.65;;
43419;SDS011;29017;51.514;-0.178;2022-08-25T06:03:05;15.10;;;9.60;;
43419;SDS011;29017;51.514;-0.178;2022-08-25T06:05:34;19.50;;;11.13;;
43419;SDS011;29017;51.514;-0.178;2022-08-25T06:08:06;15.27;;;10.32;;
43419;SDS011;29017;51.514;-0.178;2022-08-25T06:10:33;16.77;;;10.43;;
43419;SDS011;29017;51.514;-0.178;2022-08-25T06:13:01;14.55;;;10.02;;
43419;SDS011;29017;51.514;-0.178;2022-08-25T06:15:34;16.67;;;10.00;;
43419;SDS011;29017;51.514;-0.178;2022-08-25T06:18:06;18.48;;;11.15;;
43419;SDS011;29017;51.514;-0.178;2022-08-25T06:20:33;16.95;;;10.75;;
43419;SDS011;29017;51.514;-0.178;2022-08-25T06:23:01;17.60;;;10.15;;
43419;SDS011;29017;51.514;-0.178;2022-08-25T06:25:32;14.93;;;9.80;;
43419;SDS011;29017;51.514;-0.178;2022-08-25T06:28:04;16.00;;;9.38;;
43419;SDS011;29017;51.514;-0.178;2022-08-25T06:30:31;14.27;;;9.63;;
43419;SDS011;29017;51.514;-0.178;2022-08-25T06:32:58;14.00;;;9.52;;
43419;SDS011;29017;51.514;-0.178;2022-08-25T06:35:26;14.70;;;9.77;;
43419;SDS011;29017;51.514;-0.178;2022-08-25T06:38:02;14.68;;;10.07;;
43419;SDS011;29017;51.514;-0.178;2022-08-25T06:40:30;16.27;;;9.73;;
43419;SDS011;29017;51.514;-0.178;2022-08-25T06:42:57;14.73;;;9.75;;
43419;SDS011;29017;51.514;-0.178;2022-08-25T06:45:24;16.15;;;10.65;;
43419;SDS011;29017;51.514;-0.178;2022-08-25T06:47:57;18.40;;;10.20;;
43419;SDS011;29017;51.514;-0.178;2022-08-25T06:50:25;14.05;;;9.38;;
43419;SDS011;29017;51.514;-0.178;2022-08-25T06:52:52;12.82;;;8.80;;
43419;SDS011;29017;51.514;-0.178;2022-08-25T06:55:19;15.60;;;9.77;;
43419;SDS011;29017;51.514;-0.178;2022-08-25T06:57:46;14.10;;;9.20;;
43419;SDS011;29017;51.514;-0.178;2022-08-25T07:00:14;16.45;;;10.02;;
43419;SDS011;29017;51.514;-0.178;2022-08-25T07:02:41;17.92;;;10.35;;
43419;SDS011;29017;51.514;-0.178;2022-08-25T07:05:09;15.57;;;9.80;;
43419;SDS011;29017;51.514;-0.178;2022-08-25T07:07:47;14.93;;;9.50;;
43419;SDS011;29017;51.514;-0.178;2022-08-25T07:10:17;15.82;;;9.75;;
43419;SDS011;29017;51.514;-0.178;2022-08-25T07:12:47;13.25;;;8.70;;
43419;SDS011;29017;51.514;-0.178;2022-08-25T07:15:16;15.93;;;8.85;;
43419;SDS011;29017;51.514;-0.178;2022-08-25T07:17:46;18.00;;;9.43;;
43419;SDS011;29017;51.514;-0.178;2022-08-25T07:20:14;15.15;;;8.27;;
43419;SDS011;29017;51.514;-0.178;2022-08-25T07:22:44;13.50;;;8.60;;
43419;SDS011;29017;51.514;-0.178;2022-08-25T07:25:14;12.60;;;8.75;;
43419;SDS011;29017;51.514;-0.178;2022-08-25T07:27:43;13.50;;;9.10;;
43419;SDS011;29017;51.514;-0.178;2022-08-25T07:30:11;13.63;;;8.35;;
43419;SDS011;29017;51.514;-0.178;2022-08-25T07:32:39;14.05;;;8.90;;
43419;SDS011;29017;51.514;-0.178;2022-08-25T07:35:09;16.55;;;10.38;;
43419;SDS011;29017;51.514;-0.178;2022-08-25T07:37:47;16.27;;;10.63;;
43419;SDS011;29017;51.514;-0.178;2022-08-25T07:40:20;15.60;;;10.00;;
43419;SDS011;29017;51.514;-0.178;2022-08-25T07:42:49;14.40;;;9.38;;
43419;SDS011;29017;51.514;-0.178;2022-08-25T07:45:18;12.95;;;7.93;;
43419;SDS011;29017;51.514;-0.178;2022-08-25T07:47:46;15.10;;;9.05;;
43419;SDS011;29017;51.514;-0.178;2022-08-25T07:50:17;14.63;;;9.27;;
43419;SDS011;29017;51.514;-0.178;2022-08-25T07:52:44;14.93;;;8.20;;
43419;SDS011;29017;51.514;-0.178;2022-08-25T07:55:20;14.50;;;9.57;;
43419;SDS011;29017;51.514;-0.178;2022-08-25T07:57:47;14.57;;;9.40;;
43419;SDS011;29017;51.514;-0.178;2022-08-25T08:00:19;13.60;;;8.65;;
43419;SDS011;29017;51.514;-0.178;2022-08-25T08:02:46;12.68;;;8.88;;
43419;SDS011;29017;51.514;-0.178;2022-08-25T08:05:14;93.40;;;20.23;;
43419;SDS011;29017;51.514;-0.178;2022-08-25T08:07:41;15.07;;;9.98;;
43419;SDS011;29017;51.514;-0.178;2022-08-25T08:10:10;13.35;;;8.25;;
43419;SDS011;29017;51.514;-0.178;2022-08-25T08:12:59;14.70;;;7.43;;
43419;SDS011;29017;51.514;-0.178;2022-08-25T08:15:28;12.73;;;7.25;;
43419;SDS011;29017;51.514;-0.178;2022-08-25T08:18:00;12.52;;;7.25;;
43419;SDS011;29017;51.514;-0.178;2022-08-25T08:20:28;9.55;;;6.13;;
43419;SDS011;29017;51.514;-0.178;2022-08-25T08:23:07;7.72;;;5.05;;
43419;SDS011;29017;51.514;-0.178;2022-08-25T08:25:34;8.95;;;5.90;;
43419;SDS011;29017;51.514;-0.178;2022-08-25T08:28:01;10.13;;;5.90;;
43419;SDS011;29017;51.514;-0.178;2022-08-25T08:30:28;8.85;;;5.38;;
43419;SDS011;29017;51.514;-0.178;2022-08-25T08:32:55;8.85;;;5.93;;
43419;SDS011;29017;51.514;-0.178;2022-08-25T08:35:35;8.65;;;5.70;;
43419;SDS011;29017;51.514;-0.178;2022-08-25T08:38:03;8.90;;;6.65;;
43419;SDS011;29017;51.514;-0.178;2022-08-25T08:40:44;12.40;;;6.30;;
43419;SDS011;29017;51.514;-0.178;2022-08-25T08:43:37;8.40;;;5.50;;
43419;SDS011;29017;51.514;-0.178;2022-08-25T08:46:08;8.30;;;4.70;;
43419;SDS011;29017;51.514;-0.178;2022-08-25T08:48:41;6.63;;;4.00;;
43419;SDS011;29017;51.514;-0.178;2022-08-25T08:51:14;10.80;;;4.82;;
43419;SDS011;29017;51.514;-0.178;2022-08-25T08:56:27;8.45;;;4.00;;
43419;SDS011;29017;51.514;-0.178;2022-08-25T08:58:59;8.77;;;3.80;;
43419;SDS011;29017;51.514;-0.178;2022-08-25T09:01:50;7.25;;;4.25;;
43419;SDS011;29017;51.514;-0.178;2022-08-25T09:04:33;5.65;;;3.33;;
43419;SDS011;29017;51.514;-0.178;2022-08-25T09:07:06;7.75;;;3.63;;
43419;SDS011;29017;51.514;-0.178;2022-08-25T09:09:38;6.72;;;3.70;;
43419;SDS011;29017;51.514;-0.178;2022-08-25T09:12:10;4.30;;;2.25;;
43419;SDS011;29017;51.514;-0.178;2022-08-25T09:17:49;5.13;;;2.42;;
43419;SDS011;29017;51.514;-0.178;2022-08-25T09:26:32;4.13;;;2.50;;
43419;SDS011;29017;51.514;-0.178;2022-08-25T09:29:15;6.18;;;2.60;;
43419;SDS011;29017;51.514;-0.178;2022-08-25T09:31:50;4.35;;;1.90;;
43419;SDS011;29017;51.514;-0.178;2022-08-25T09:34:20;3.47;;;1.75;;
43419;SDS011;29017;51.514;-0.178;2022-08-25T09:36:50;4.07;;;2.15;;
43419;SDS011;29017;51.514;-0.178;2022-08-25T09:39:18;4.75;;;1.80;;
43419;SDS011;29017;51.514;-0.178;2022-08-25T09:46:56;4.20;;;1.55;;
43419;SDS011;29017;51.514;-0.178;2022-08-25T09:49:43;4.25;;;1.42;;
43419;SDS011;29017;51.514;-0.178;2022-08-25T09:54:54;2.40;;;1.13;;
43419;SDS011;29017;51.514;-0.178;2022-08-25T09:57:30;3.28;;;1.23;;
43419;SDS011;29017;51.514;-0.178;2022-08-25T10:02:40;3.03;;;1.50;;
43419;SDS011;29017;51.514;-0.178;2022-08-25T10:08:11;3.20;;;1.23;;
43419;SDS011;29017;51.514;-0.178;2022-08-25T10:10:54;5.78;;;1.40;;
43419;SDS011;29017;51.514;-0.178;2022-08-25T10:13:31;2.58;;;1.10;;
43419;SDS011;29017;51.514;-0.178;2022-08-25T10:16:04;3.08;;;1.10;;
43419;SDS011;29017;51.514;-0.178;2022-08-25T10:19:03;2.08;;;1.40;;
43419;SDS011;29017;51.514;-0.178;2022-08-25T10:21:32;2.50;;;1.23;;
43419;SDS011;29017;51.514;-0.178;2022-08-25T10:24:00;3.97;;;1.50;;
43419;SDS011;29017;51.514;-0.178;2022-08-25T10:41:05;3.35;;;1.23;;
43419;SDS011;29017;51.514;-0.178;2022-08-25T10:56:37;4.68;;;1.85;;
43419;SDS011;29017;51.514;-0.178;2022-08-25T11:02:01;2.78;;;0.90;;
43419;SDS011;29017;51.514;-0.178;2022-08-25T11:07:37;7.80;;;1.90;;
43419;SDS011;29017;51.514;-0.178;2022-08-25T11:10:25;2.97;;;1.63;;
43419;SDS011;29017;51.514;-0.178;2022-08-25T11:12:58;3.90;;;2.67;;
43419;SDS011;29017;51.514;-0.178;2022-08-25T11:15:39;7.32;;;2.42;;
43419;SDS011;29017;51.514;-0.178;2022-08-25T11:18:44;3.05;;;1.48;;
43419;SDS011;29017;51.514;-0.178;2022-08-25T11:21:30;38.83;;;8.27;;
43419;SDS011;29017;51.514;-0.178;2022-08-25T11:26:50;2.17;;;1.60;;
43419;SDS011;29017;51.514;-0.178;2022-08-25T11:29:23;3.72;;;2.08;;
43419;SDS011;29017;51.514;-0.178;2022-08-25T11:31:56;6.15;;;2.58;;
43419;SDS011;29017;51.514;-0.178;2022-08-25T11:34:26;5.22;;;3.55;;
43419;SDS011;29017;51.514;-0.178;2022-08-25T11:37:00;6.28;;;4.43;;
43419;SDS011;29017;51.514;-0.178;2022-08-25T11:45:30;7.40;;;4.95;;
43419;SDS011;29017;51.514;-0.178;2022-08-25T11:48:40;6.03;;;4.20;;
43419;SDS011;29017;51.514;-0.178;2022-08-25T11:51:27;6.78;;;3.95;;
43419;SDS011;29017;51.514;-0.178;2022-08-25T12:08:05;2.40;;;1.02;;
43419;SDS011;29017;51.514;-0.178;2022-08-25T12:13:37;2.42;;;1.10;;
43419;SDS011;29017;51.514;-0.178;2022-08-25T12:16:04;5.85;;;1.38;;
43419;SDS011;29017;51.514;-0.178;2022-08-25T12:28:46;1.20;;;0.90;;
43419;SDS011;29017;51.514;-0.178;2022-08-25T12:36:58;2.13;;;0.50;;
43419;SDS011;29017;51.514;-0.178;2022-08-25T12:39:41;1.73;;;0.60;;
43419;SDS011;29017;51.514;-0.178;2022-08-25T12:47:47;1.10;;;0.60;;
43419;SDS011;29017;51.514;-0.178;2022-08-25T12:53:09;3.50;;;0.60;;
43419;SDS011;29017;51.514;-0.178;2022-08-25T12:55:44;1.67;;;0.65;;
43419;SDS011;29017;51.514;-0.178;2022-08-25T12:58:15;0.60;;;0.40;;
43419;SDS011;29017;51.514;-0.178;2022-08-25T13:09:42;0.55;;;0.30;;
43419;SDS011;29017;51.514;-0.178;2022-08-25T13:14:45;0.70;;;0.38;;
43419;SDS011;29017;51.514;-0.178;2022-08-25T13:17:30;0.85;;;0.35;;
43419;SDS011;29017;51.514;-0.178;2022-08-25T13:20:12;1.00;;;0.40;;
43419;SDS011;29017;51.514;-0.178;2022-08-25T13:22:49;0.65;;;0.40;;
43419;SDS011;29017;51.514;-0.178;2022-08-25T13:25:23;0.73;;;0.30;;
43419;SDS011;29017;51.514;-0.178;2022-08-25T13:28:03;1.33;;;0.50;;
43419;SDS011;29017;51.514;-0.178;2022-08-25T13:30:36;0.98;;;0.20;;
43419;SDS011;29017;51.514;-0.178;2022-08-25T13:33:18;1.23;;;0.50;;
43419;SDS011;29017;51.514;-0.178;2022-08-25T13:35:48;0.70;;;0.30;;
43419;SDS011;29017;51.514;-0.178;2022-08-25T13:38:37;1.02;;;0.40;;
43419;SDS011;29017;51.514;-0.178;2022-08-25T13:41:04;1.00;;;0.40;;
43419;SDS011;29017;51.514;-0.178;2022-08-25T13:43:35;0.85;;;0.30;;
43419;SDS011;29017;51.514;-0.178;2022-08-25T13:46:04;1.02;;;0.40;;
43419;SDS011;29017;51.514;-0.178;2022-08-25T13:51:15;1.30;;;0.30;;
43419;SDS011;29017;51.514;-0.178;2022-08-25T13:53:51;1.58;;;0.30;;
43419;SDS011;29017;51.514;-0.178;2022-08-25T13:56:32;0.82;;;0.30;;
43419;SDS011;29017;51.514;-0.178;2022-08-25T14:01:46;1.35;;;0.40;;
43419;SDS011;29017;51.514;-0.178;2022-08-25T14:04:29;2.13;;;0.30;;
43419;SDS011;29017;51.514;-0.178;2022-08-25T14:07:12;0.98;;;0.50;;
43419;SDS011;29017;51.514;-0.178;2022-08-25T14:10:05;1.38;;;0.25;;
43419;SDS011;29017;51.514;-0.178;2022-08-25T14:12:43;0.50;;;0.30;;
43419;SDS011;29017;51.514;-0.178;2022-08-25T14:17:59;1.42;;;0.30;;
43419;SDS011;29017;51.514;-0.178;2022-08-25T14:20:32;1.70;;;0.40;;
43419;SDS011;29017;51.514;-0.178;2022-08-25T14:23:08;1.75;;;0.30;;
43419;SDS011;29017;51.514;-0.178;2022-08-25T14:25:44;1.33;;;0.30;;
43419;SDS011;29017;51.514;-0.178;2022-08-25T14:28:13;0.80;;;0.20;;
43419;SDS011;29017;51.514;-0.178;2022-08-25T14:30:45;1.08;;;0.22;;
43419;SDS011;29017;51.514;-0.178;2022-08-25T14:33:17;1.08;;;0.40;;
43419;SDS011;29017;51.514;-0.178;2022-08-25T14:35:49;2.05;;;0.40;;
43419;SDS011;29017;51.514;-0.178;2022-08-25T14:38:19;0.50;;;0.30;;
43419;SDS011;29017;51.514;-0.178;2022-08-25T14:40:48;1.25;;;0.50;;
43419;SDS011;29017;51.514;-0.178;2022-08-25T14:43:15;3.30;;;0.47;;
43419;SDS011;29017;51.514;-0.178;2022-08-25T14:45:48;0.95;;;0.50;;
43419;SDS011;29017;51.514;-0.178;2022-08-25T14:48:27;1.65;;;0.38;;
43419;SDS011;29017;51.514;-0.178;2022-08-25T14:50:58;0.98;;;0.40;;
43419;SDS011;29017;51.514;-0.178;2022-08-25T14:53:26;1.52;;;0.70;;
43419;SDS011;29017;51.514;-0.178;2022-08-25T14:55:53;2.78;;;0.90;;
43419;SDS011;29017;51.514;-0.178;2022-08-25T14:58:24;4.50;;;1.23;;
43419;SDS011;29017;51.514;-0.178;2022-08-25T15:00:52;3.72;;;0.93;;
43419;SDS011;29017;51.514;-0.178;2022-08-25T15:03:24;1.40;;;0.77;;
43419;SDS011;29017;51.514;-0.178;2022-08-25T15:05:57;2.53;;;1.45;;
43419;SDS011;29017;51.514;-0.178;2022-08-25T15:08:26;3.15;;;1.48;;
43419;SDS011;29017;51.514;-0.178;2022-08-25T15:11:12;2.42;;;1.50;;
43419;SDS011;29017;51.514;-0.178;2022-08-25T15:13:40;2.03;;;1.30;;
43419;SDS011;29017;51.514;-0.178;2022-08-25T15:16:21;2.70;;;1.33;;
43419;SDS011;29017;51.514;-0.178;2022-08-25T15:19:00;1.90;;;1.50;;
43419;SDS011;29017;51.514;-0.178;2022-08-25T15:21:32;2.75;;;1.17;;
43419;SDS011;29017;51.514;-0.178;2022-08-25T15:24:01;1.38;;;0.93;;
43419;SDS011;29017;51.514;-0.178;2022-08-25T15:26:28;3.03;;;1.30;;
43419;SDS011;29017;51.514;-0.178;2022-08-25T15:28:57;3.35;;;1.27;;
43419;SDS011;29017;51.514;-0.178;2022-08-25T15:31:25;3.33;;;0.82;;
43419;SDS011;29017;51.514;-0.178;2022-08-25T15:33:52;2.95;;;0.95;;
43419;SDS011;29017;51.514;-0.178;2022-08-25T15:36:21;2.33;;;1.02;;
43419;SDS011;29017;51.514;-0.178;2022-08-25T15:38:50;1.38;;;1.00;;
43419;SDS011;29017;51.514;-0.178;2022-08-25T15:41:18;1.55;;;0.82;;
43419;SDS011;29017;51.514;-0.178;2022-08-25T15:43:53;1.73;;;0.90;;
43419;SDS011;29017;51.514;-0.178;2022-08-25T15:46:21;3.30;;;1.35;;
43419;SDS011;29017;51.514;-0.178;2022-08-25T15:48:51;5.22;;;2.30;;
43419;SDS011;29017;51.514;-0.178;2022-08-25T15:51:18;4.20;;;2.42;;
43419;SDS011;29017;51.514;-0.178;2022-08-25T15:53:45;6.72;;;2.65;;
43419;SDS011;29017;51.514;-0.178;2022-08-25T15:56:12;6.07;;;3.25;;
43419;SDS011;29017;51.514;-0.178;2022-08-25T15:58:52;6.13;;;3.20;;
43419;SDS011;29017;51.514;-0.178;2022-08-25T16:01:21;4.18;;;3.10;;
43419;SDS011;29017;51.514;-0.178;2022-08-25T16:03:50;7.53;;;3.50;;
43419;SDS011;29017;51.514;-0.178;2022-08-25T16:06:17;5.65;;;3.42;;
43419;SDS011;29017;51.514;-0.178;2022-08-25T16:08:44;6.57;;;3.33;;
43419;SDS011;29017;51.514;-0.178;2022-08-25T16:11:18;3.72;;;2.97;;
43419;SDS011;29017;51.514;-0.178;2022-08-25T16:13:47;4.68;;;3.35;;
43419;SDS011;29017;51.514;-0.178;2022-08-25T16:16:15;6.03;;;3.75;;
43419;SDS011;29017;51.514;-0.178;2022-08-25T16:18:43;5.72;;;4.10;;
43419;SDS011;29017;51.514;-0.178;2022-08-25T16:21:11;4.20;;;3.80;;
43419;SDS011;29017;51.514;-0.178;2022-08-25T16:23:40;6.20;;;4.40;;
43419;SDS011;29017;51.514;-0.178;2022-08-25T16:26:09;6.55;;;4.18;;
43419;SDS011;29017;51.514;-0.178;2022-08-25T16:28:38;8.23;;;4.85;;
43419;SDS011;29017;51.514;-0.178;2022-08-25T16:31:10;6.13;;;4.38;;
43419;SDS011;29017;51.514;-0.178;2022-08-25T16:33:38;8.07;;;5.05;;
43419;SDS011;29017;51.514;-0.178;2022-08-25T16:38:41;6.53;;;4.97;;
43419;SDS011;29017;51.514;-0.178;2022-08-25T16:41:15;6.82;;;5.65;;
43419;SDS011;29017;51.514;-0.178;2022-08-25T16:43:46;9.37;;;6.23;;
43419;SDS011;29017;51.514;-0.178;2022-08-25T16:46:14;9.02;;;6.10;;
43419;SDS011;29017;51.514;-0.178;2022-08-25T16:48:43;11.02;;;5.75;;
43419;SDS011;29017;51.514;-0.178;2022-08-25T16:51:11;9.52;;;6.47;;
43419;SDS011;29017;51.514;-0.178;2022-08-25T16:53:47;9.80;;;5.82;;
43419;SDS011;29017;51.514;-0.178;2022-08-25T16:56:34;11.13;;;5.78;;
43419;SDS011;29017;51.514;-0.178;2022-08-25T16:59:03;8.32;;;6.00;;
43419;SDS011;29017;51.514;-0.178;2022-08-25T17:01:32;8.73;;;5.97;;
43419;SDS011;29017;51.514;-0.178;2022-08-25T17:04:01;8.45;;;5.82;;
43419;SDS011;29017;51.514;-0.178;2022-08-25T17:06:31;11.02;;;6.20;;
43419;SDS011;29017;51.514;-0.178;2022-08-25T17:09:04;9.50;;;5.90;;
43419;SDS011;29017;51.514;-0.178;2022-08-25T17:11:34;9.82;;;5.60;;
43419;SDS011;29017;51.514;-0.178;2022-08-25T17:14:08;7.80;;;5.45;;
43419;SDS011;29017;51.514;-0.178;2022-08-25T17:16:36;8.68;;;5.15;;
43419;SDS011;29017;51.514;-0.178;2022-08-25T17:19:04;8.80;;;5.78;;